sensor_id;sensor_type;location;lat;lon;timestamp;P1;durP1;ratioP1;P2;durP2;ratioP2
38190;SDS011;25191;47.510;19.124;2024-02-14T00:15:34;3.13;;;2.85;;
38190;SDS011;25191;47.510;19.124;2024-02-14T00:35:35;3.35;;;2.95;;
38190;SDS011;25191;47.510;19.124;2024-02-14T00:55:35;3.10;;;2.80;;
38190;SDS011;25191;47.510;19.124;2024-02-14T01:15:36;2.55;;;2.30;;
38190;SDS011;25191;47.510;19.124;2024-02-14T01:35:36;3.08;;;2.78;;
38190;SDS011;25191;47.510;19.124;2024-02-14T01:55:37;2.75;;;2.22;;
38190;SDS011;25191;47.510;19.124;2024-02-14T02:15:37;2.70;;;2.50;;
38190;SDS011;25191;47.510;19.124;2024-02-14T02:35:39;2.60;;;2.40;;
38190;SDS011;25191;47.510;19.124;2024-02-14T02:55:42;2.60;;;2.38;;
38190;SDS011;25191;47.510;19.124;2024-02-14T03:15:44;2.70;;;2.50;;
38190;SDS011;25191;47.510;19.124;2024-02-14T03:35:46;2.60;;;2.40;;
38190;SDS011;25191;47.510;19.124;2024-02-14T03:55:47;2.80;;;2.45;;
38190;SDS011;25191;47.510;19.124;2024-02-14T04:15:50;2.83;;;2.42;;
38190;SDS011;25191;47.510;19.124;2024-02-14T04:35:50;2.33;;;2.13;;
38190;SDS011;25191;47.510;19.124;2024-02-14T04:55:51;1.95;;;1.75;;
38190;SDS011;25191;47.510;19.124;2024-02-14T05:15:52;2.47;;;2.22;;
38190;SDS011;25191;47.510;19.124;2024-02-14T05:35:53;5.18;;;2.75;;
38190;SDS011;25191;47.510;19.124;2024-02-14T05:55:53;3.83;;;3.40;;
38190;SDS011;25191;47.510;19.124;2024-02-14T06:15:55;9.85;;;3.38;;
38190;SDS011;25191;47.510;19.124;2024-02-14T06:35:55;5.95;;;3.20;;
38190;SDS011;25191;47.510;19.124;2024-02-14T06:55:56;7.70;;;4.00;;
38190;SDS011;25191;47.510;19.124;2024-02-14T07:15:57;7.38;;;3.22;;
38190;SDS011;25191;47.510;19.124;2024-02-14T07:35:58;6.68;;;3.35;;
38190;SDS011;25191;47.510;19.124;2024-02-14T07:55:58;7.32;;;3.13;;
38190;SDS011;25191;47.510;19.124;2024-02-14T08:15:58;4.70;;;2.80;;
38190;SDS011;25191;47.510;19.124;2024-02-14T08:35:59;3.47;;;2.60;;
38190;SDS011;25191;47.510;19.124;2024-02-14T08:56:00;115.75;;;23.08;;
38190;SDS011;25191;47.510;19.124;2024-02-14T09:16:00;49.92;;;13.68;;
38190;SDS011;25191;47.510;19.124;2024-02-14T09:36:01;42.92;;;13.15;;
38190;SDS011;25191;47.510;19.124;2024-02-14T09:56:02;37.83;;;11.88;;
38190;SDS011;25191;47.510;19.124;2024-02-14T10:16:03;28.10;;;9.82;;
38190;SDS011;25191;47.510;19.124;2024-02-14T10:36:07;21.92;;;8.50;;
38190;SDS011;25191;47.510;19.124;2024-02-14T10:56:08;18.88;;;7.80;;
38190;SDS011;25191;47.510;19.124;2024-02-14T11:16:09;14.48;;;6.53;;
38190;SDS011;25191;47.510;19.124;2024-02-14T11:36:10;16.45;;;6.28;;
38190;SDS011;25191;47.510;19.124;2024-02-14T11:56:11;15.27;;;6.20;;
38190;SDS011;25191;47.510;19.124;2024-02-14T12:16:12;12.40;;;5.72;;
38190;SDS011;25191;47.510;19.124;2024-02-14T12:36:12;9.93;;;5.07;;
38190;SDS011;25191;47.510;19.124;2024-02-14T12:56:12;9.63;;;4.97;;
38190;SDS011;25191;47.510;19.124;2024-02-14T13:16:13;8.95;;;4.63;;
38190;SDS011;25191;47.510;19.124;2024-02-14T13:36:13;7.00;;;4.00;;
38190;SDS011;25191;47.510;19.124;2024-02-14T13:56:16;8.38;;;4.10;;
38190;SDS011;25191;47.510;19.124;2024-02-14T14:16:18;5.38;;;3.50;;
38190;SDS011;25191;47.510;19.124;2024-02-14T14:36:21;7.18;;;3.67;;
38190;SDS011;25191;47.510;19.124;2024-02-14T14:56:22;4.78;;;3.00;;
38190;SDS011;25191;47.510;19.124;2024-02-14T15:16:25;4.90;;;3.25;;
38190;SDS011;25191;47.510;19.124;2024-02-14T15:36:27;4.35;;;3.10;;
38190;SDS011;25191;47.510;19.124;2024-02-14T15:56:27;4.50;;;2.80;;
38190;SDS011;25191;47.510;19.124;2024-02-14T16:16:28;5.22;;;3.03;;
38190;SDS011;25191;47.510;19.124;2024-02-14T16:36:30;4.13;;;2.58;;
38190;SDS011;25191;47.510;19.124;2024-02-14T16:56:30;8.55;;;3.45;;
38190;SDS011;25191;47.510;19.124;2024-02-14T17:16:34;6.20;;;3.08;;
38190;SDS011;25191;47.510;19.124;2024-02-14T17:36:35;7.10;;;2.95;;
38190;SDS011;25191;47.510;19.124;2024-02-14T17:56:36;7.40;;;3.05;;
38190;SDS011;25191;47.510;19.124;2024-02-14T18:16:45;4.03;;;2.55;;
38190;SDS011;25191;47.510;19.124;2024-02-14T18:36:45;10.88;;;3.33;;
38190;SDS011;25191;47.510;19.124;2024-02-14T18:56:47;5.28;;;2.30;;
38190;SDS011;25191;47.510;19.124;2024-02-14T19:16:48;3.22;;;2.05;;
38190;SDS011;25191;47.510;19.124;2024-02-14T19:36:48;3.28;;;1.95;;
38190;SDS011;25191;47.510;19.124;2024-02-14T19:56:49;10.30;;;2.67;;
38190;SDS011;25191;47.510;19.124;2024-02-14T20:16:49;7.20;;;2.80;;
38190;SDS011;25191;47.510;19.124;2024-02-14T20:36:50;6.85;;;3.40;;
38190;SDS011;25191;47.510;19.124;2024-02-14T20:56:51;6.80;;;3.50;;
38190;SDS011;25191;47.510;19.124;2024-02-14T21:16:52;5.45;;;3.35;;
38190;SDS011;25191;47.510;19.124;2024-02-14T21:36:52;4.95;;;3.50;;
38190;SDS011;25191;47.510;19.124;2024-02-14T21:56:53;5.75;;;3.10;;
38190;SDS011;25191;47.510;19.124;2024-02-14T22:16:54;5.78;;;3.25;;
38190;SDS011;25191;47.510;19.124;2024-02-14T22:36:58;5.85;;;3.40;;
38190;SDS011;25191;47.510;19.124;2024-02-14T22:56:58;5.60;;;3.45;;
38190;SDS011;25191;47.510;19.124;2024-02-14T23:16:59;4.18;;;3.50;;
38190;SDS011;25191;47.510;19.124;2024-02-14T23:37:00;6.22;;;3.50;;
38190;SDS011;25191;47.510;19.124;2024-02-14T23:57:01;5.95;;;3.58;;
